Venango Regional Airport
KFKL : now visible

Airfield :











YOU CAN JOIN US ON...

 
LOGIN :

Register | Disclaimer

   EN    FR    IT 

 









Legend :    VFR   Marginal VFR   IFR   Intensive IFR   Very Intensive IFR
Visi :
Ceiling :
>= 8 km
>= 3000ft
5 to 8 km
1000 to 3000 ft
1500m to 5 km
500 to 1000 ft
800 to 1500m
200 to 500 ft
< 800m
< 200 ft
Symbols :   Thunderstorms  Fog  Heavy snow  Heavy precipitations  Wind > 20 kt







- Airport Elevation : 1540 ft


KFKL - Venango Regional

CURRENT METAR :
  • 210236Z AUTO 21003KT 8SM -RA FEW003 OVC013 09/09 A2976 RMK AO2 P0005

EXPIRED METARs :
  • 210207Z AUTO 23003KT 10SM -RA FEW002 BKN017 OVC055 09/09 A2975 RMK AO2 P0000
  • 210156Z AUTO 23003KT 10SM -RA SCT022 SCT040 OVC055 09/09 A2975 RMK AO2 SLP073 P0004 T00940089
  • 210056Z AUTO 06004KT 10SM -RA FEW021 BKN046 OVC055 09/09 A2971 RMK AO2 RAB05 SLP064 P0003 T00940089
  • 202356Z AUTO 00000KT 10SM FEW010 BKN065 OVC095 09/08 A2967 RMK AO2 RAE40 SLP053 P0005 6//// T00940083 10172 20094 51011

TAF KFKL
Valid from the 21 at 00:00 until the 22 at 00:00 UTC


202334Z 2100/2124 26003KT 6SM RA BR VCSH BKN035
FM211100 26006KT P6SM OVC008
FM211700 25008KT P6SM BKN015
KZOB FIR / North America



MET'MAP, your aeronautical weather chart ! - Copyright ORBIFLY December 2007 - Disclaimer

ORBIFLY MET'MAP TEAM :

Programming & Development : Alexandra Zaïnal
Concept & Development : Baudouin d'Aumeries
Co-Development & Prog : Marc-Olivier Méhu
Technical & hardware support : Manuel Goepfert

Contact : metmap@orbifly.com




SOURCES & CREDITS :

   NOAA       Earth
Advisory